createdAt,value
2019-01-18T00:00:39.383Z,99928.38
2019-01-18T00:03:08.007Z,99941.06
2019-01-18T00:05:36.658Z,99937.73
2019-01-18T00:08:05.599Z,99933.45
2019-01-18T00:10:34.175Z,99930.81
2019-01-18T00:13:02.766Z,99930.61
2019-01-18T00:15:31.408Z,99940.06
2019-01-18T00:17:59.970Z,99940.85
2019-01-18T00:20:28.579Z,99943.97
2019-01-18T00:22:57.109Z,99953.44
2019-01-18T00:25:25.647Z,99953.20
2019-01-18T00:27:54.464Z,99953.34
2019-01-18T00:30:23.922Z,99954.41
2019-01-18T00:32:52.438Z,99958.45
2019-01-18T00:35:20.982Z,99964.43
2019-01-18T00:37:49.532Z,99967.87
2019-01-18T00:40:19.666Z,99964.34
2019-01-18T00:42:48.223Z,99976.18
2019-01-18T00:45:18.333Z,99971.81
2019-01-18T00:47:46.964Z,99979.06
2019-01-18T00:50:17.698Z,99985.37
2019-01-18T00:52:46.342Z,99982.62
2019-01-18T00:55:14.882Z,99986.09
2019-01-18T00:57:43.868Z,99984.68
2019-01-18T01:00:18.551Z,99993.50
2019-01-18T01:02:47.359Z,99992.17
2019-01-18T01:05:16.233Z,100002.59
2019-01-18T01:07:44.860Z,100004.06
2019-01-18T01:10:13.624Z,100007.21
2019-01-18T01:12:42.093Z,100019.72
2019-01-18T01:15:19.273Z,100032.77
2019-01-18T01:17:48.603Z,100033.19
2019-01-18T01:20:19.594Z,100041.36
2019-01-18T01:22:48.569Z,100041.70
2019-01-18T01:25:17.178Z,100064.12
2019-01-18T01:27:45.841Z,100063.48
2019-01-18T01:30:25.239Z,100077.34
2019-01-18T01:32:55.627Z,100101.30
2019-01-18T01:35:24.258Z,100108.70
2019-01-18T01:37:52.820Z,100123.09
2019-01-18T01:40:25.831Z,100135.02
2019-01-18T01:42:54.690Z,100144.64
2019-01-18T01:45:23.542Z,100165.13
2019-01-18T01:47:51.989Z,100166.20
2019-01-18T01:50:22.388Z,100179.50
2019-01-18T01:52:50.920Z,100184.02
2019-01-18T01:55:19.578Z,100190.66
2019-01-18T01:57:48.032Z,100208.48
2019-01-18T02:00:21.218Z,100208.54
2019-01-18T02:02:49.803Z,100221.45
2019-01-18T02:05:18.468Z,100221.94
2019-01-18T02:07:47.025Z,100226.87
2019-01-18T02:10:17.514Z,100243.48
2019-01-18T02:12:45.999Z,100246.00
2019-01-18T02:15:17.459Z,100252.92
2019-01-18T02:17:46.029Z,100250.06
2019-01-18T02:20:16.687Z,100252.39
2019-01-18T02:22:45.340Z,100258.25
2019-01-18T02:25:14.144Z,100265.53
2019-01-18T02:27:43.169Z,100271.25
2019-01-18T02:30:15.226Z,100273.83
2019-01-18T02:32:43.782Z,100287.34
2019-01-18T02:35:12.416Z,100289.02
2019-01-18T02:37:40.928Z,100294.03
2019-01-18T02:40:11.847Z,100306.57
2019-01-18T02:42:40.641Z,100301.63
2019-01-18T02:45:17.233Z,100310.72
2019-01-18T02:47:45.805Z,100321.23
2019-01-18T02:50:14.461Z,100323.67
2019-01-18T02:52:43.064Z,100329.77
2019-01-18T02:55:11.812Z,100333.23
2019-01-18T02:57:41.699Z,100340.55
2019-01-18T03:00:20.971Z,100342.11
2019-01-18T03:02:51.423Z,100347.37
2019-01-18T03:05:22.777Z,100356.92
2019-01-18T03:07:51.334Z,100367.68
2019-01-18T03:10:22.098Z,100372.58
2019-01-18T03:12:50.689Z,100380.70
2019-01-18T03:15:19.185Z,100389.54
2019-01-18T03:17:48.066Z,100396.59
2019-01-18T03:20:18.101Z,100401.84
2019-01-18T03:22:46.642Z,100405.31
2019-01-18T03:25:17.563Z,100412.48
2019-01-18T03:27:46.025Z,100417.02
2019-01-18T03:30:19.803Z,100426.22
2019-01-18T03:32:47.685Z,100432.67
2019-01-18T03:35:18.131Z,100441.39
2019-01-18T03:37:46.656Z,100447.97
2019-01-18T03:40:16.620Z,100453.82
2019-01-18T03:42:45.257Z,100459.20
2019-01-18T03:45:15.851Z,100463.05
2019-01-18T03:47:44.414Z,100468.03
2019-01-18T03:50:20.981Z,100468.52
2019-01-18T03:52:49.622Z,100477.36
2019-01-18T03:55:18.341Z,100478.44
2019-01-18T03:57:46.955Z,100481.55
2019-01-18T04:00:25.959Z,100494.89
2019-01-18T04:02:51.260Z,100492.05
2019-01-18T04:05:19.895Z,100494.42
2019-01-18T04:07:48.459Z,100495.58
2019-01-18T04:10:21.258Z,100507.41
2019-01-18T04:12:49.782Z,100511.12
2019-01-18T04:15:20.886Z,100515.30
2019-01-18T04:17:49.471Z,100517.93
2019-01-18T04:20:19.489Z,100529.77
2019-01-18T04:22:48.050Z,100534.78
2019-01-18T04:25:18.438Z,100537.77
2019-01-18T04:27:47.017Z,100542.67
2019-01-18T04:30:17.753Z,100548.62
2019-01-18T04:32:46.294Z,100555.22
2019-01-18T04:35:15.283Z,100559.64
2019-01-18T04:37:43.838Z,100562.06
2019-01-18T04:40:17.497Z,100566.84
2019-01-18T04:42:46.082Z,100573.73
2019-01-18T04:45:14.699Z,100575.41
2019-01-18T04:47:43.402Z,100574.45
2019-01-18T04:50:14.446Z,100575.66
2019-01-18T04:52:43.367Z,100580.78
2019-01-18T04:55:12.061Z,100581.51
2019-01-18T04:57:40.579Z,100589.05
2019-01-18T05:00:18.296Z,100584.74
2019-01-18T05:02:46.968Z,100579.98
2019-01-18T05:05:15.487Z,100590.00
2019-01-18T05:07:44.036Z,100605.66
2019-01-18T05:10:14.909Z,100620.24
2019-01-18T05:12:43.450Z,100624.80
2019-01-18T05:15:14.568Z,100631.97
2019-01-18T05:17:43.120Z,100629.81
2019-01-18T05:20:12.347Z,100644.03
2019-01-18T05:22:40.856Z,100654.42
2019-01-18T05:25:11.932Z,100656.22
2019-01-18T05:27:40.865Z,100660.16
2019-01-18T05:30:26.653Z,100667.70
2019-01-18T05:32:55.261Z,100670.33
2019-01-18T05:35:23.760Z,100683.11
2019-01-18T05:37:52.392Z,100688.37
2019-01-18T05:40:22.192Z,100694.94
2019-01-18T05:42:53.954Z,100706.17
2019-01-18T05:45:23.169Z,100713.08
2019-01-18T05:47:53.215Z,100727.78
2019-01-18T05:50:24.712Z,100728.16
2019-01-18T05:52:53.285Z,100730.05
2019-01-18T05:55:21.892Z,100750.59
2019-01-18T05:57:50.914Z,100759.11
2019-01-18T06:00:41.405Z,100758.48
2019-01-18T06:03:10.048Z,100765.31
2019-01-18T06:05:40.987Z,100774.62
2019-01-18T06:08:09.506Z,100788.23
2019-01-18T06:10:38.207Z,100779.98
2019-01-18T06:13:06.729Z,100787.88
2019-01-18T06:15:35.325Z,100789.77
2019-01-18T06:18:04.230Z,100795.39
2019-01-18T06:20:32.843Z,100792.77
2019-01-18T06:23:01.563Z,100807.80
2019-01-18T06:25:30.222Z,100810.80
2019-01-18T06:27:58.880Z,100815.89
2019-01-18T06:30:27.554Z,100823.30
2019-01-18T06:32:56.059Z,100834.65
2019-01-18T06:35:24.634Z,100834.19
2019-01-18T06:37:53.170Z,100849.25
2019-01-18T06:40:23.035Z,100849.47
2019-01-18T06:42:51.506Z,100855.91
2019-01-18T06:45:22.632Z,100864.47
2019-01-18T06:47:51.092Z,100871.77
2019-01-18T06:50:20.392Z,100881.45
2019-01-18T06:52:49.162Z,100888.39
2019-01-18T06:55:17.798Z,100897.22
2019-01-18T06:57:46.426Z,100909.17
2019-01-18T07:00:20.876Z,100907.15
2019-01-18T07:02:49.531Z,100926.12
2019-01-18T07:05:18.239Z,100924.23
2019-01-18T07:07:46.925Z,100930.98
2019-01-18T07:10:20.946Z,100936.19
2019-01-18T07:12:49.654Z,100943.13
2019-01-18T07:15:18.313Z,100943.13
2019-01-18T07:17:46.972Z,100948.61
2019-01-18T07:20:18.098Z,100957.28
2019-01-18T07:22:46.752Z,100962.22
2019-01-18T07:25:24.449Z,100970.91
2019-01-18T07:27:53.068Z,100980.68
2019-01-18T07:30:27.696Z,100984.15
2019-01-18T07:32:56.556Z,100993.45
2019-01-18T07:35:25.128Z,100995.59
2019-01-18T07:37:53.636Z,101000.38
2019-01-18T07:40:22.286Z,101003.48
2019-01-18T07:42:50.900Z,101011.09
2019-01-18T07:45:21.750Z,101022.91
2019-01-18T07:47:50.262Z,101023.55
2019-01-18T07:50:20.159Z,101034.66
2019-01-18T07:52:48.978Z,101037.98
2019-01-18T07:55:17.921Z,101047.08
2019-01-18T07:57:46.545Z,101050.17
2019-01-18T08:00:20.400Z,101060.44
2019-01-18T08:02:48.957Z,101062.94
2019-01-18T08:05:17.703Z,101072.26
2019-01-18T08:07:46.333Z,101071.98
2019-01-18T08:10:17.124Z,101084.64
2019-01-18T08:12:45.849Z,101087.64
2019-01-18T08:15:16.548Z,101098.52
2019-01-18T08:17:45.123Z,101104.71
2019-01-18T08:20:19.479Z,101113.33
2019-01-18T08:22:48.059Z,101116.67
2019-01-18T08:25:16.923Z,101124.97
2019-01-18T08:27:45.509Z,101124.03
2019-01-18T08:30:22.725Z,101136.97
2019-01-18T08:32:51.338Z,101143.36
2019-01-18T08:35:21.339Z,101142.78
2019-01-18T08:37:49.870Z,101152.17
2019-01-18T08:40:24.458Z,101156.58
2019-01-18T08:42:53.277Z,101160.42
2019-01-18T08:45:34.237Z,101168.11
2019-01-18T08:48:02.871Z,101175.19
2019-01-18T08:50:31.449Z,101171.81
2019-01-18T08:53:00.194Z,101170.31
2019-01-18T08:55:28.793Z,101176.60
2019-01-18T08:57:57.256Z,101173.88
2019-01-18T09:00:27.816Z,101180.25
2019-01-18T09:02:56.397Z,101185.80
2019-01-18T09:05:26.413Z,101189.06
2019-01-18T09:07:55.342Z,101187.62
2019-01-18T09:10:31.616Z,101198.78
2019-01-18T09:13:00.112Z,101194.74
2019-01-18T09:15:28.628Z,101204.55
2019-01-18T09:17:57.184Z,101201.45
2019-01-18T09:20:30.068Z,101208.30
2019-01-18T09:22:58.628Z,101205.11
2019-01-18T09:25:27.520Z,101215.14
2019-01-18T09:27:56.173Z,101216.92
2019-01-18T09:30:27.768Z,101221.95
2019-01-18T09:32:56.562Z,101224.11
2019-01-18T09:35:25.867Z,101232.64
2019-01-18T09:37:55.890Z,101230.16
2019-01-18T09:40:32.330Z,101236.77
2019-01-18T09:43:01.125Z,101235.55
2019-01-18T09:45:29.890Z,101241.27
2019-01-18T09:47:58.479Z,101235.78
2019-01-18T09:50:29.006Z,101236.05
2019-01-18T09:52:57.872Z,101241.26
2019-01-18T09:55:26.732Z,101244.53
2019-01-18T09:57:55.323Z,101247.83
2019-01-18T10:00:26.337Z,101249.57
2019-01-18T10:02:55.095Z,101246.31
2019-01-18T10:05:24.306Z,101241.45
2019-01-18T10:07:53.088Z,101246.05
2019-01-18T10:10:23.042Z,101244.16
2019-01-18T10:12:51.860Z,101246.09
2019-01-18T10:15:23.075Z,101248.52
2019-01-18T10:17:51.669Z,101250.55
2019-01-18T10:20:20.530Z,101245.95
2019-01-18T10:22:50.309Z,101251.50
2019-01-18T10:25:19.581Z,101248.95
2019-01-18T10:27:48.280Z,101247.08
2019-01-18T10:30:18.693Z,101252.94
2019-01-18T10:32:47.359Z,101248.28
2019-01-18T10:35:16.481Z,101250.55
2019-01-18T10:37:45.440Z,101254.25
2019-01-18T10:40:15.445Z,101257.59
2019-01-18T10:42:44.825Z,101253.97
2019-01-18T10:45:15.114Z,101263.03
2019-01-18T10:47:43.749Z,101264.53
2019-01-18T10:50:15.669Z,101266.39
2019-01-18T10:52:44.404Z,101271.83
2019-01-18T10:55:13.039Z,101275.20
2019-01-18T10:57:41.614Z,101283.14
2019-01-18T11:00:22.387Z,101284.52
2019-01-18T11:02:52.039Z,101287.66
2019-01-18T11:05:21.290Z,101291.88
2019-01-18T11:07:49.896Z,101297.98
2019-01-18T11:10:18.590Z,101286.78
2019-01-18T11:12:47.263Z,101297.36
2019-01-18T11:15:21.003Z,101300.05
2019-01-18T11:17:49.766Z,101300.23
2019-01-18T11:20:30.288Z,101296.50
2019-01-18T11:23:00.234Z,101298.86
2019-01-18T11:25:32.033Z,101305.13
2019-01-18T11:27:59.725Z,101300.48
2019-01-18T11:30:28.301Z,101304.70
2019-01-18T11:32:56.838Z,101305.75
2019-01-18T11:35:25.489Z,101311.69
2019-01-18T11:37:54.085Z,101306.32
2019-01-18T11:40:23.740Z,101306.80
2019-01-18T11:42:52.422Z,101307.30
2019-01-18T11:45:20.951Z,101308.05
2019-01-18T11:47:49.484Z,101310.06
2019-01-18T11:50:23.338Z,101305.91
2019-01-18T11:52:52.025Z,101308.44
2019-01-18T11:55:20.605Z,101305.13
2019-01-18T11:57:49.234Z,101309.38
2019-01-18T12:00:26.367Z,101310.08
2019-01-18T12:02:54.973Z,101322.58
2019-01-18T12:05:23.668Z,101321.40
2019-01-18T12:07:52.102Z,101321.50
2019-01-18T12:10:23.383Z,101319.38
2019-01-18T12:12:51.975Z,101326.06
2019-01-18T12:15:20.495Z,101327.59
2019-01-18T12:17:49.054Z,101339.16
2019-01-18T12:20:20.833Z,101332.48
2019-01-18T12:22:49.329Z,101333.49
2019-01-18T12:25:18.081Z,101335.95
2019-01-18T12:27:46.667Z,101340.31
2019-01-18T12:30:24.301Z,101342.94
2019-01-18T12:32:52.917Z,101337.17
2019-01-18T12:35:21.529Z,101333.00
2019-01-18T12:37:50.046Z,101338.68
2019-01-18T12:40:18.560Z,101332.18
2019-01-18T12:42:47.390Z,101340.64
2019-01-18T12:45:17.884Z,101335.27
2019-01-18T12:47:46.470Z,101335.20
2019-01-18T12:50:18.227Z,101331.27
2019-01-18T12:52:46.789Z,101333.65
2019-01-18T12:55:15.337Z,101328.86
2019-01-18T12:57:43.831Z,101336.89
2019-01-18T13:00:15.173Z,101344.02
2019-01-18T13:02:43.677Z,101340.17
2019-01-18T13:05:15.276Z,101333.73
2019-01-18T13:07:43.999Z,101334.48
2019-01-18T13:10:12.514Z,101340.59
2019-01-18T13:12:41.153Z,101339.78
2019-01-18T13:15:18.688Z,101343.84
2019-01-18T13:17:47.178Z,101343.09
2019-01-18T13:20:15.661Z,101343.90
2019-01-18T13:22:46.920Z,101340.74
2019-01-18T13:25:17.087Z,101343.84
2019-01-18T13:27:45.649Z,101339.23
2019-01-18T13:30:18.549Z,101343.09
2019-01-18T13:32:47.177Z,101346.14
2019-01-18T13:35:15.823Z,101351.01
2019-01-18T13:37:44.707Z,101345.16
2019-01-18T13:40:21.216Z,101351.91
2019-01-18T13:42:49.728Z,101352.42
2019-01-18T13:45:18.579Z,101349.42
2019-01-18T13:47:47.598Z,101351.25
2019-01-18T13:50:18.172Z,101348.48
2019-01-18T13:52:46.900Z,101355.80
2019-01-18T13:55:18.504Z,101350.88
2019-01-18T13:57:47.197Z,101354.11
2019-01-18T14:00:16.023Z,101358.94
2019-01-18T14:02:48.437Z,101352.41
2019-01-18T14:05:15.187Z,101360.56
2019-01-18T14:07:43.800Z,101348.55
2019-01-18T14:10:18.160Z,101350.61
2019-01-18T14:12:46.692Z,101346.09
2019-01-18T14:15:17.788Z,101349.09
2019-01-18T14:17:46.551Z,101351.42
2019-01-18T14:20:20.986Z,101348.98
2019-01-18T14:22:47.891Z,101351.99
2019-01-18T14:25:16.663Z,101355.00
2019-01-18T14:27:45.237Z,101349.83
2019-01-18T14:30:16.861Z,101353.88
2019-01-18T14:32:45.549Z,101349.16
2019-01-18T14:35:14.213Z,101349.56
2019-01-18T14:37:42.893Z,101353.73
2019-01-18T14:40:14.017Z,101355.05
2019-01-18T14:42:42.749Z,101354.16
2019-01-18T14:45:23.091Z,101354.69
2019-01-18T14:47:51.706Z,101358.20
2019-01-18T14:50:20.986Z,101358.14
2019-01-18T14:52:49.618Z,101364.16
2019-01-18T14:55:18.500Z,101357.59
2019-01-18T14:57:47.275Z,101356.14
2019-01-18T15:00:18.649Z,101359.00
2019-01-18T15:02:47.199Z,101366.01
2019-01-18T15:05:15.865Z,101362.58
2019-01-18T15:07:44.403Z,101361.92
2019-01-18T15:10:15.812Z,101366.48
2019-01-18T15:12:44.575Z,101366.20
2019-01-18T15:15:15.047Z,101369.30
2019-01-18T15:17:44.624Z,101373.72
2019-01-18T15:20:16.348Z,101361.19
2019-01-18T15:22:45.188Z,101361.94
2019-01-18T15:25:13.845Z,101357.05
2019-01-18T15:27:42.593Z,101357.48
2019-01-18T15:30:14.173Z,101361.05
2019-01-18T15:32:42.845Z,101355.22
2019-01-18T15:35:14.817Z,101355.22
2019-01-18T15:37:43.442Z,101351.94
2019-01-18T15:40:15.275Z,101357.10
2019-01-18T15:42:43.739Z,101351.56
2019-01-18T15:45:12.740Z,101361.14
2019-01-18T15:47:41.298Z,101361.29
2019-01-18T15:50:15.602Z,101360.58
2019-01-18T15:52:45.062Z,101362.98
2019-01-18T15:55:13.880Z,101367.44
2019-01-18T15:57:48.265Z,101371.56
2019-01-18T16:00:25.314Z,101368.61
2019-01-18T16:02:54.998Z,101363.92
2019-01-18T16:05:23.718Z,101377.58
2019-01-18T16:07:56.057Z,101376.92
2019-01-18T16:10:26.346Z,101380.67
2019-01-18T16:12:55.016Z,101381.56
2019-01-18T16:15:44.917Z,101380.44
2019-01-18T16:18:16.497Z,101383.64
2019-01-18T16:20:45.730Z,101387.34
2019-01-18T16:23:15.976Z,101384.02
2019-01-18T16:25:44.779Z,101382.13
2019-01-18T16:28:13.294Z,101384.23
2019-01-18T16:30:41.849Z,101382.84
2019-01-18T16:33:10.631Z,101385.69
2019-01-18T16:35:39.315Z,101386.48
2019-01-18T16:38:10.901Z,101383.67
2019-01-18T16:40:39.454Z,101378.31
2019-01-18T16:43:20.016Z,101378.69
2019-01-18T16:45:48.630Z,101387.30
2019-01-18T16:48:17.379Z,101383.58
2019-01-18T16:50:45.916Z,101384.94
2019-01-18T16:53:14.583Z,101389.31
2019-01-18T16:55:43.230Z,101389.17
2019-01-18T16:58:11.944Z,101389.87
2019-01-18T17:00:43.843Z,101387.62
2019-01-18T17:03:13.858Z,101383.48
2019-01-18T17:05:42.513Z,101388.75
2019-01-18T17:08:11.113Z,101383.63
2019-01-18T17:10:39.745Z,101379.22
2019-01-18T17:13:08.504Z,101381.09
2019-01-18T17:15:37.319Z,101381.28
2019-01-18T17:18:06.004Z,101386.95
2019-01-18T17:20:39.986Z,101387.23
2019-01-18T17:23:08.889Z,101389.73
2019-01-18T17:25:37.801Z,101392.40
2019-01-18T17:28:06.423Z,101390.61
2019-01-18T17:30:34.954Z,101389.67
2019-01-18T17:33:03.544Z,101393.34
2019-01-18T17:35:35.151Z,101392.30
2019-01-18T17:38:09.774Z,101392.08
2019-01-18T17:40:41.429Z,101387.25
2019-01-18T17:43:21.973Z,101397.24
2019-01-18T17:46:02.442Z,101395.42
2019-01-18T17:48:46.040Z,101398.33
2019-01-18T17:51:32.514Z,101405.70
2019-01-18T17:54:06.769Z,101410.64
2019-01-18T17:56:43.922Z,101409.70
2019-01-18T17:59:24.578Z,101416.74
2019-01-18T18:01:58.724Z,101417.78
2019-01-18T18:04:36.380Z,101412.17
2019-01-18T18:07:11.120Z,101419.61
2019-01-18T18:09:53.906Z,101422.43
2019-01-18T18:12:43.232Z,101424.91
2019-01-18T18:15:26.692Z,101430.22
2019-01-18T18:18:16.681Z,101428.44
2019-01-18T18:21:10.769Z,101428.77
2019-01-18T18:23:48.365Z,101433.00
2019-01-18T18:26:24.646Z,101441.78
2019-01-18T18:29:05.794Z,101437.17
2019-01-18T18:31:56.721Z,101435.34
2019-01-18T18:34:43.105Z,101445.64
2019-01-18T18:37:20.753Z,101446.11
2019-01-18T18:40:22.313Z,101446.70
2019-01-18T18:42:56.860Z,101445.69
2019-01-18T18:45:43.401Z,101451.64
2019-01-18T18:48:18.571Z,101448.73
2019-01-18T18:50:58.719Z,101447.70
2019-01-18T18:53:32.814Z,101453.34
2019-01-18T18:56:20.678Z,101460.02
2019-01-18T18:59:07.188Z,101464.42
2019-01-18T19:01:53.440Z,101458.59
2019-01-18T19:04:33.941Z,101460.29
2019-01-18T19:07:08.488Z,101460.76
2019-01-18T19:09:55.181Z,101463.81
2019-01-18T19:12:42.944Z,101468.13
2019-01-18T19:15:29.767Z,101459.16
2019-01-18T19:18:13.197Z,101462.92
2019-01-18T19:20:53.644Z,101464.65
2019-01-18T19:23:30.953Z,101460.58
2019-01-18T19:26:30.930Z,101458.27
2019-01-18T19:29:20.404Z,101469.16
2019-01-18T19:32:01.119Z,101463.48
2019-01-18T19:34:50.923Z,101464.42
2019-01-18T19:37:44.777Z,101472.73
2019-01-18T19:40:31.262Z,101474.58
2019-01-18T19:43:20.682Z,101473.34
2019-01-18T19:45:57.918Z,101472.12
2019-01-18T19:48:47.797Z,101482.04
2019-01-18T19:51:28.284Z,101479.73
2019-01-18T19:54:14.565Z,101488.39
2019-01-18T19:57:00.847Z,101478.77
2019-01-18T19:59:59.663Z,101490.03
2019-01-18T20:02:37.249Z,101489.56
2019-01-18T20:05:20.557Z,101489.52
2019-01-18T20:08:00.646Z,101491.87
2019-01-18T20:10:35.552Z,101492.56
2019-01-18T20:13:37.136Z,101492.84
2019-01-18T20:16:25.111Z,101496.23
2019-01-18T20:19:02.529Z,101502.06
2019-01-18T20:21:45.957Z,101506.52
2019-01-18T20:24:29.807Z,101505.20
2019-01-18T20:27:25.722Z,101503.72
2019-01-18T20:30:12.052Z,101505.48
2019-01-18T20:32:49.823Z,101515.49
2019-01-18T20:35:40.826Z,101510.42
2019-01-18T20:38:18.600Z,101520.44
2019-01-18T20:40:56.919Z,101514.94
2019-01-18T20:43:37.074Z,101513.16
2019-01-18T20:46:20.400Z,101521.70
2019-01-18T20:49:00.958Z,101521.75
2019-01-18T20:51:38.385Z,101525.23
2019-01-18T20:54:21.650Z,101516.53
2019-01-18T20:56:53.227Z,101526.12
2019-01-18T20:59:39.755Z,101525.92
2019-01-18T21:02:26.268Z,101529.64
2019-01-18T21:05:18.502Z,101523.70
2019-01-18T21:07:50.317Z,101526.06
2019-01-18T21:10:22.100Z,101538.01
2019-01-18T21:13:23.441Z,101527.75
2019-01-18T21:16:16.019Z,101535.66
2019-01-18T21:19:19.231Z,101540.08
2019-01-18T21:22:05.859Z,101538.60
2019-01-18T21:24:57.008Z,101541.06
2019-01-18T21:27:28.915Z,101542.37
2019-01-18T21:30:18.626Z,101544.77
2019-01-18T21:32:59.214Z,101551.83
2019-01-18T21:35:33.502Z,101549.67
2019-01-18T21:38:16.877Z,101544.64
2019-01-18T21:40:48.621Z,101553.77
2019-01-18T21:43:29.254Z,101557.14
2019-01-18T21:46:06.420Z,101558.23
2019-01-18T21:48:55.824Z,101558.04
2019-01-18T21:51:42.437Z,101563.03
2019-01-18T21:54:22.781Z,101561.66
2019-01-18T21:57:10.999Z,101555.97
2019-01-18T22:00:17.082Z,101563.13
2019-01-18T22:03:09.656Z,101563.88
2019-01-18T22:05:56.223Z,101565.66
2019-01-18T22:08:42.865Z,101570.31
2019-01-18T22:11:17.326Z,101573.66
2019-01-18T22:13:57.964Z,101569.37
2019-01-18T22:16:35.301Z,101573.89
2019-01-18T22:19:15.759Z,101572.77
2019-01-18T22:21:50.670Z,101575.40
2019-01-18T22:24:46.583Z,101575.58
2019-01-18T22:27:38.987Z,101576.62
2019-01-18T22:30:32.631Z,101578.92
2019-01-18T22:33:14.883Z,101573.70
2019-01-18T22:35:52.090Z,101579.34
2019-01-18T22:38:23.747Z,101583.67
2019-01-18T22:41:01.209Z,101579.52
2019-01-18T22:43:44.090Z,101582.16
2019-01-18T22:46:37.890Z,101578.16
2019-01-18T22:49:30.728Z,101581.03
2019-01-18T22:52:17.096Z,101577.17
2019-01-18T22:55:06.685Z,101581.88
2019-01-18T22:57:44.054Z,101583.34
2019-01-18T23:00:41.803Z,101581.31
2019-01-18T23:03:19.681Z,101584.09
2019-01-18T23:05:54.206Z,101580.33
2019-01-18T23:08:58.969Z,101581.45
2019-01-18T23:11:30.656Z,101583.72
2019-01-18T23:14:11.324Z,101586.72
2019-01-18T23:16:48.899Z,101582.81
2019-01-18T23:19:23.353Z,101588.22
2019-01-18T23:22:06.750Z,101583.33
2019-01-18T23:24:47.028Z,101595.48
2019-01-18T23:27:24.255Z,101582.48
2019-01-18T23:30:04.991Z,101591.22
2019-01-18T23:32:51.681Z,101584.80
2019-01-18T23:35:38.600Z,101588.45
2019-01-18T23:38:28.078Z,101582.50
2019-01-18T23:41:14.516Z,101589.26
2019-01-18T23:43:51.879Z,101587.84
2019-01-18T23:46:48.954Z,101580.23
2019-01-18T23:49:20.515Z,101588.89
2019-01-18T23:52:10.124Z,101578.41
2019-01-18T23:55:06.847Z,101581.51
2019-01-18T23:57:59.746Z,101578.41
